Hlavní strana
METAR-TAF:

METAR-TAF

Letiště :

Washington Dulles International Airport

Washington, Virginie, Spojené státy americké

zeměpisná šířka: 38-56-05N, zeměpisná délka: 077-26-51W, výška: 95 m

Aktuální stav počasí

Zpráva byla vytvořena před 25 minutami, v 15:52 UTC
Severoseverovýchodní vítr 10 kt
Teplota 27°C
Vlhkost vzduchu 42%
Tlak 1015 hPa
Viditelnost: 16.1 km
Polojasno ve výšce 4000 ft
Polojasno ve výšce 25000 ft

METAR: KIAD 181552Z 02010KT 10SM SCT040 SCT250 27/13 A2998 RMK AO2 SLP151 T02720128

Čas: 12:17 (16:17 UTC)

Předpověď počasí

Zpráva byla vytvořena před 1 hodinou a 24 minutami, v 14:53 UTC
Předpověď platná od 18 v 15 UTC do 19 v 18 UTC
Severoseverozápadní vítr 7 kt
Viditelnost: 10 km
Skoro jasno ve výšce 5000 ft
Od 19 v 0000 UTC
Severní vítr 5 kt
Viditelnost: 10 km
Skoro jasno ve výšce 25000 ft
Od 19 v 0400 UTC
vítr z různých směrů 3 kt
Viditelnost: 10 km
Skoro jasno ve výšce 25000 ft

TAF: KIAD 181453Z 1815/1918 34007KT P6SM FEW050 FM190000 35005KT P6SM FEW250 FM190400 VRB03KT P6SM FEW250

Stav a předpovědi počasí z více než 4 000 letišť (zprávy METAR a TAF).

Červené a žluté tečky na mapě představují dostupné meteorologické stanice.

Když kurzor umístíte na tečku, zobrazí se název stanice.

Pak kliknutím zobrazíte stav a předpověď počasí.

Chcete-li změnit mapu, kliknutím na zelené tlačítko se znaménkem +mapu přiblížíte, kliknutím na zelené tlačítko se znaménkem – mapu oddálíte a kliknutím na zelené šipky přejdete na sousední mapy.


METAR-TAF: